sensor_id;sensor_type;location;lat;lon;timestamp;temperature;humidity
55121;DHT22;41019;48.512;9.036;2023-01-08T00:01:03;2.50;99.90
55121;DHT22;41019;48.512;9.036;2023-01-08T00:03:30;2.50;99.90
55121;DHT22;41019;48.512;9.036;2023-01-08T00:06:00;2.50;99.90
55121;DHT22;41019;48.512;9.036;2023-01-08T00:08:27;2.50;99.90
55121;DHT22;41019;48.512;9.036;2023-01-08T00:10:54;2.50;99.90
55121;DHT22;41019;48.512;9.036;2023-01-08T00:13:20;2.50;99.90
55121;DHT22;41019;48.512;9.036;2023-01-08T00:15:46;2.50;99.90
55121;DHT22;41019;48.512;9.036;2023-01-08T00:18:12;2.50;99.90
55121;DHT22;41019;48.512;9.036;2023-01-08T00:20:43;2.50;99.90
55121;DHT22;41019;48.512;9.036;2023-01-08T00:23:17;2.50;99.90
55121;DHT22;41019;48.512;9.036;2023-01-08T00:25:45;2.50;99.90
55121;DHT22;41019;48.512;9.036;2023-01-08T00:28:11;2.50;99.90
55121;DHT22;41019;48.512;9.036;2023-01-08T00:30:39;2.50;99.90
55121;DHT22;41019;48.512;9.036;2023-01-08T00:33:05;2.50;99.90
55121;DHT22;41019;48.512;9.036;2023-01-08T00:35:31;2.50;99.90
55121;DHT22;41019;48.512;9.036;2023-01-08T00:37:58;2.50;99.90
55121;DHT22;41019;48.512;9.036;2023-01-08T00:40:23;2.60;99.90
55121;DHT22;41019;48.512;9.036;2023-01-08T00:42:50;2.50;99.90
55121;DHT22;41019;48.512;9.036;2023-01-08T00:45:16;2.50;99.90
55121;DHT22;41019;48.512;9.036;2023-01-08T00:47:42;2.40;99.90
55121;DHT22;41019;48.512;9.036;2023-01-08T00:50:08;2.40;99.90
55121;DHT22;41019;48.512;9.036;2023-01-08T00:52:34;2.40;99.90
55121;DHT22;41019;48.512;9.036;2023-01-08T00:55:00;2.40;99.90
55121;DHT22;41019;48.512;9.036;2023-01-08T00:57:26;2.30;99.90
55121;DHT22;41019;48.512;9.036;2023-01-08T00:59:51;2.30;99.90
55121;DHT22;41019;48.512;9.036;2023-01-08T01:02:17;2.30;99.90
55121;DHT22;41019;48.512;9.036;2023-01-08T01:04:43;2.20;99.90
55121;DHT22;41019;48.512;9.036;2023-01-08T01:07:09;2.20;99.90
55121;DHT22;41019;48.512;9.036;2023-01-08T01:09:36;2.20;99.90
55121;DHT22;41019;48.512;9.036;2023-01-08T01:12:02;2.20;99.90
55121;DHT22;41019;48.512;9.036;2023-01-08T01:14:28;2.20;99.90
55121;DHT22;41019;48.512;9.036;2023-01-08T01:16:54;2.20;99.90
55121;DHT22;41019;48.512;9.036;2023-01-08T01:19:20;2.20;99.90
55121;DHT22;41019;48.512;9.036;2023-01-08T01:21:46;2.20;99.90
55121;DHT22;41019;48.512;9.036;2023-01-08T01:24:12;2.20;99.90
55121;DHT22;41019;48.512;9.036;2023-01-08T01:26:39;2.20;99.90
55121;DHT22;41019;48.512;9.036;2023-01-08T01:29:05;2.30;99.90
55121;DHT22;41019;48.512;9.036;2023-01-08T01:31:32;2.20;99.90
55121;DHT22;41019;48.512;9.036;2023-01-08T01:33:58;2.30;99.90
55121;DHT22;41019;48.512;9.036;2023-01-08T01:36:25;2.20;99.90
55121;DHT22;41019;48.512;9.036;2023-01-08T01:38:53;2.30;99.90
55121;DHT22;41019;48.512;9.036;2023-01-08T01:41:37;2.30;99.90
55121;DHT22;41019;48.512;9.036;2023-01-08T01:47:02;2.30;99.90
55121;DHT22;41019;48.512;9.036;2023-01-08T01:49:29;2.30;99.90
55121;DHT22;41019;48.512;9.036;2023-01-08T01:52:00;2.30;99.90
55121;DHT22;41019;48.512;9.036;2023-01-08T01:54:30;2.30;99.90
55121;DHT22;41019;48.512;9.036;2023-01-08T01:56:59;2.30;99.90
55121;DHT22;41019;48.512;9.036;2023-01-08T01:59:26;2.30;99.90
55121;DHT22;41019;48.512;9.036;2023-01-08T02:01:53;2.30;99.90
55121;DHT22;41019;48.512;9.036;2023-01-08T02:04:20;2.30;99.90
55121;DHT22;41019;48.512;9.036;2023-01-08T02:12:40;2.40;99.90
55121;DHT22;41019;48.512;9.036;2023-01-08T02:18:18;2.50;99.90
55121;DHT22;41019;48.512;9.036;2023-01-08T02:20:59;2.50;99.90
55121;DHT22;41019;48.512;9.036;2023-01-08T02:23:59;2.50;99.90
55121;DHT22;41019;48.512;9.036;2023-01-08T02:31:23;2.60;99.90
55121;DHT22;41019;48.512;9.036;2023-01-08T02:33:51;2.60;99.90
55121;DHT22;41019;48.512;9.036;2023-01-08T02:40:10;2.60;99.90
55121;DHT22;41019;48.512;9.036;2023-01-08T02:42:43;2.60;99.90
55121;DHT22;41019;48.512;9.036;2023-01-08T02:48:01;2.70;99.90
55121;DHT22;41019;48.512;9.036;2023-01-08T02:53:38;2.70;99.90
55121;DHT22;41019;48.512;9.036;2023-01-08T02:56:19;2.70;99.90
55121;DHT22;41019;48.512;9.036;2023-01-08T02:58:48;2.70;99.90
55121;DHT22;41019;48.512;9.036;2023-01-08T03:01:17;2.80;99.90
55121;DHT22;41019;48.512;9.036;2023-01-08T03:03:51;2.80;99.90
55121;DHT22;41019;48.512;9.036;2023-01-08T03:06:20;2.80;99.90
55121;DHT22;41019;48.512;9.036;2023-01-08T03:08:50;2.80;99.90
55121;DHT22;41019;48.512;9.036;2023-01-08T03:11:20;2.80;99.90
55121;DHT22;41019;48.512;9.036;2023-01-08T03:13:50;2.80;99.90
55121;DHT22;41019;48.512;9.036;2023-01-08T03:16:37;2.80;99.90
55121;DHT22;41019;48.512;9.036;2023-01-08T03:19:22;2.80;99.90
55121;DHT22;41019;48.512;9.036;2023-01-08T03:21:51;2.90;99.90
55121;DHT22;41019;48.512;9.036;2023-01-08T03:24:22;2.80;99.90
55121;DHT22;41019;48.512;9.036;2023-01-08T03:26:52;2.90;99.90
55121;DHT22;41019;48.512;9.036;2023-01-08T03:29:23;2.90;99.90
55121;DHT22;41019;48.512;9.036;2023-01-08T03:31:54;2.90;99.90
55121;DHT22;41019;48.512;9.036;2023-01-08T03:34:24;2.90;99.90
55121;DHT22;41019;48.512;9.036;2023-01-08T03:36:54;2.90;99.90
55121;DHT22;41019;48.512;9.036;2023-01-08T03:39:29;2.90;99.90
55121;DHT22;41019;48.512;9.036;2023-01-08T03:42:01;2.80;99.90
55121;DHT22;41019;48.512;9.036;2023-01-08T03:44:29;2.80;99.90
55121;DHT22;41019;48.512;9.036;2023-01-08T03:46:57;2.80;99.90
55121;DHT22;41019;48.512;9.036;2023-01-08T03:49:26;2.80;99.90
55121;DHT22;41019;48.512;9.036;2023-01-08T03:51:53;2.70;99.90
55121;DHT22;41019;48.512;9.036;2023-01-08T03:54:24;2.70;99.90
55121;DHT22;41019;48.512;9.036;2023-01-08T03:56:53;2.70;99.90
55121;DHT22;41019;48.512;9.036;2023-01-08T03:59:19;2.70;99.90
55121;DHT22;41019;48.512;9.036;2023-01-08T04:01:45;2.70;99.90
55121;DHT22;41019;48.512;9.036;2023-01-08T04:04:11;2.70;99.90
55121;DHT22;41019;48.512;9.036;2023-01-08T04:06:36;2.70;99.90
55121;DHT22;41019;48.512;9.036;2023-01-08T04:09:03;2.70;99.90
55121;DHT22;41019;48.512;9.036;2023-01-08T04:11:30;2.70;99.90
55121;DHT22;41019;48.512;9.036;2023-01-08T04:13:55;2.70;99.90
55121;DHT22;41019;48.512;9.036;2023-01-08T04:16:22;2.70;99.90
55121;DHT22;41019;48.512;9.036;2023-01-08T04:18:48;2.60;99.90
55121;DHT22;41019;48.512;9.036;2023-01-08T04:21:14;2.70;99.90
55121;DHT22;41019;48.512;9.036;2023-01-08T04:23:39;2.70;99.90
55121;DHT22;41019;48.512;9.036;2023-01-08T04:26:06;2.70;99.90
55121;DHT22;41019;48.512;9.036;2023-01-08T04:28:34;2.70;99.90
55121;DHT22;41019;48.512;9.036;2023-01-08T04:31:05;2.70;99.90
55121;DHT22;41019;48.512;9.036;2023-01-08T04:33:32;2.70;99.90
55121;DHT22;41019;48.512;9.036;2023-01-08T04:35:57;2.70;99.90
55121;DHT22;41019;48.512;9.036;2023-01-08T04:38:23;2.70;99.90
55121;DHT22;41019;48.512;9.036;2023-01-08T04:40:49;2.70;99.90
55121;DHT22;41019;48.512;9.036;2023-01-08T04:43:15;2.70;99.90
55121;DHT22;41019;48.512;9.036;2023-01-08T04:45:40;2.70;99.90
55121;DHT22;41019;48.512;9.036;2023-01-08T04:48:06;2.80;99.90
55121;DHT22;41019;48.512;9.036;2023-01-08T04:50:32;2.80;99.90
55121;DHT22;41019;48.512;9.036;2023-01-08T04:52:58;2.80;99.90
55121;DHT22;41019;48.512;9.036;2023-01-08T04:55:25;2.80;99.90
55121;DHT22;41019;48.512;9.036;2023-01-08T04:57:50;2.80;99.90
55121;DHT22;41019;48.512;9.036;2023-01-08T05:00:16;2.80;99.90
55121;DHT22;41019;48.512;9.036;2023-01-08T05:02:42;2.80;99.90
55121;DHT22;41019;48.512;9.036;2023-01-08T05:05:08;2.90;99.90
55121;DHT22;41019;48.512;9.036;2023-01-08T05:07:34;2.90;99.90
55121;DHT22;41019;48.512;9.036;2023-01-08T05:10:00;2.90;99.90
55121;DHT22;41019;48.512;9.036;2023-01-08T05:12:26;2.90;99.90
55121;DHT22;41019;48.512;9.036;2023-01-08T05:14:52;2.80;99.90
55121;DHT22;41019;48.512;9.036;2023-01-08T05:17:18;2.90;99.90
55121;DHT22;41019;48.512;9.036;2023-01-08T05:19:44;3.00;99.90
55121;DHT22;41019;48.512;9.036;2023-01-08T05:22:10;3.00;99.90
55121;DHT22;41019;48.512;9.036;2023-01-08T05:24:36;3.00;99.90
55121;DHT22;41019;48.512;9.036;2023-01-08T05:27:02;3.00;99.90
55121;DHT22;41019;48.512;9.036;2023-01-08T05:29:27;3.10;99.90
55121;DHT22;41019;48.512;9.036;2023-01-08T05:31:53;3.10;99.90
55121;DHT22;41019;48.512;9.036;2023-01-08T05:34:19;3.20;99.90
55121;DHT22;41019;48.512;9.036;2023-01-08T05:36:45;3.20;99.90
55121;DHT22;41019;48.512;9.036;2023-01-08T05:39:11;3.30;99.90
55121;DHT22;41019;48.512;9.036;2023-01-08T05:41:36;3.30;99.90
55121;DHT22;41019;48.512;9.036;2023-01-08T05:44:02;3.30;99.90
55121;DHT22;41019;48.512;9.036;2023-01-08T05:46:28;3.40;99.90
55121;DHT22;41019;48.512;9.036;2023-01-08T05:48:54;3.50;99.90
55121;DHT22;41019;48.512;9.036;2023-01-08T05:51:20;3.50;99.90
55121;DHT22;41019;48.512;9.036;2023-01-08T05:53:46;3.50;99.90
55121;DHT22;41019;48.512;9.036;2023-01-08T05:56:12;3.60;99.90
55121;DHT22;41019;48.512;9.036;2023-01-08T05:58:37;3.60;99.90
55121;DHT22;41019;48.512;9.036;2023-01-08T06:01:12;3.60;99.90
55121;DHT22;41019;48.512;9.036;2023-01-08T06:03:40;3.70;99.90
55121;DHT22;41019;48.512;9.036;2023-01-08T06:06:07;3.70;99.90
55121;DHT22;41019;48.512;9.036;2023-01-08T06:08:33;3.80;99.90
55121;DHT22;41019;48.512;9.036;2023-01-08T06:11:01;3.80;99.90
55121;DHT22;41019;48.512;9.036;2023-01-08T06:13:28;3.80;99.90
55121;DHT22;41019;48.512;9.036;2023-01-08T06:15:54;3.90;99.90
55121;DHT22;41019;48.512;9.036;2023-01-08T06:18:20;3.90;99.90
55121;DHT22;41019;48.512;9.036;2023-01-08T06:20:46;4.00;99.90
55121;DHT22;41019;48.512;9.036;2023-01-08T06:23:12;4.00;99.90
55121;DHT22;41019;48.512;9.036;2023-01-08T06:25:38;4.10;99.90
55121;DHT22;41019;48.512;9.036;2023-01-08T06:28:04;4.10;99.90
55121;DHT22;41019;48.512;9.036;2023-01-08T06:30:30;4.10;99.90
55121;DHT22;41019;48.512;9.036;2023-01-08T06:32:57;4.20;99.90
55121;DHT22;41019;48.512;9.036;2023-01-08T06:35:23;4.20;99.90
55121;DHT22;41019;48.512;9.036;2023-01-08T06:37:49;4.30;99.90
55121;DHT22;41019;48.512;9.036;2023-01-08T06:40:15;4.30;99.90
55121;DHT22;41019;48.512;9.036;2023-01-08T06:42:41;4.30;99.90
55121;DHT22;41019;48.512;9.036;2023-01-08T06:45:09;4.40;99.90
55121;DHT22;41019;48.512;9.036;2023-01-08T06:47:35;4.40;99.90
55121;DHT22;41019;48.512;9.036;2023-01-08T06:50:01;4.40;99.90
55121;DHT22;41019;48.512;9.036;2023-01-08T06:52:27;4.50;99.90
55121;DHT22;41019;48.512;9.036;2023-01-08T06:54:53;4.60;99.90
55121;DHT22;41019;48.512;9.036;2023-01-08T06:57:19;4.60;99.90
55121;DHT22;41019;48.512;9.036;2023-01-08T06:59:45;4.60;99.90
55121;DHT22;41019;48.512;9.036;2023-01-08T07:02:16;4.60;99.90
55121;DHT22;41019;48.512;9.036;2023-01-08T07:04:42;4.70;99.90
55121;DHT22;41019;48.512;9.036;2023-01-08T07:07:13;4.80;99.90
55121;DHT22;41019;48.512;9.036;2023-01-08T07:09:40;4.80;99.90
55121;DHT22;41019;48.512;9.036;2023-01-08T07:12:11;4.80;99.90
55121;DHT22;41019;48.512;9.036;2023-01-08T07:14:39;4.80;99.90
55121;DHT22;41019;48.512;9.036;2023-01-08T07:17:05;4.90;99.90
55121;DHT22;41019;48.512;9.036;2023-01-08T07:19:31;5.00;99.90
55121;DHT22;41019;48.512;9.036;2023-01-08T07:21:56;5.00;99.90
55121;DHT22;41019;48.512;9.036;2023-01-08T07:24:22;5.10;99.90
55121;DHT22;41019;48.512;9.036;2023-01-08T07:26:48;5.60;99.90
55121;DHT22;41019;48.512;9.036;2023-01-08T07:29:14;5.20;99.90
55121;DHT22;41019;48.512;9.036;2023-01-08T07:31:40;5.30;99.90
55121;DHT22;41019;48.512;9.036;2023-01-08T07:34:06;5.30;99.90
55121;DHT22;41019;48.512;9.036;2023-01-08T07:36:32;5.50;99.90
55121;DHT22;41019;48.512;9.036;2023-01-08T07:38:58;5.50;99.90
55121;DHT22;41019;48.512;9.036;2023-01-08T07:41:25;5.60;99.90
55121;DHT22;41019;48.512;9.036;2023-01-08T07:43:51;5.70;99.90
55121;DHT22;41019;48.512;9.036;2023-01-08T07:46:17;5.90;99.90
55121;DHT22;41019;48.512;9.036;2023-01-08T07:48:43;6.00;99.90
55121;DHT22;41019;48.512;9.036;2023-01-08T07:51:09;6.20;99.90
55121;DHT22;41019;48.512;9.036;2023-01-08T07:53:36;6.60;99.90
55121;DHT22;41019;48.512;9.036;2023-01-08T07:56:06;6.40;99.90
55121;DHT22;41019;48.512;9.036;2023-01-08T07:58:33;6.50;99.90
55121;DHT22;41019;48.512;9.036;2023-01-08T08:01:00;6.50;99.90
55121;DHT22;41019;48.512;9.036;2023-01-08T08:03:26;6.60;99.90
55121;DHT22;41019;48.512;9.036;2023-01-08T08:05:52;6.70;99.90
55121;DHT22;41019;48.512;9.036;2023-01-08T08:08:18;6.90;99.90
55121;DHT22;41019;48.512;9.036;2023-01-08T08:10:45;6.90;99.90
55121;DHT22;41019;48.512;9.036;2023-01-08T08:13:11;7.00;99.90
55121;DHT22;41019;48.512;9.036;2023-01-08T08:15:38;7.10;99.90
55121;DHT22;41019;48.512;9.036;2023-01-08T08:18:06;7.10;99.90
55121;DHT22;41019;48.512;9.036;2023-01-08T08:20:32;7.20;99.90
55121;DHT22;41019;48.512;9.036;2023-01-08T08:23:08;7.40;99.90
55121;DHT22;41019;48.512;9.036;2023-01-08T08:25:35;7.40;99.90
55121;DHT22;41019;48.512;9.036;2023-01-08T08:28:02;7.50;99.90
55121;DHT22;41019;48.512;9.036;2023-01-08T08:30:29;7.60;99.90
55121;DHT22;41019;48.512;9.036;2023-01-08T08:32:59;7.60;99.90
55121;DHT22;41019;48.512;9.036;2023-01-08T08:35:28;7.70;99.90
55121;DHT22;41019;48.512;9.036;2023-01-08T08:37:58;7.70;99.90
55121;DHT22;41019;48.512;9.036;2023-01-08T08:40:28;7.70;99.90
55121;DHT22;41019;48.512;9.036;2023-01-08T08:42:55;8.10;99.90
55121;DHT22;41019;48.512;9.036;2023-01-08T08:45:22;7.80;99.90
55121;DHT22;41019;48.512;9.036;2023-01-08T08:47:50;7.80;99.90
55121;DHT22;41019;48.512;9.036;2023-01-08T08:50:16;7.80;99.90
55121;DHT22;41019;48.512;9.036;2023-01-08T08:52:42;7.70;99.90
55121;DHT22;41019;48.512;9.036;2023-01-08T08:55:09;7.80;99.90
55121;DHT22;41019;48.512;9.036;2023-01-08T08:57:40;8.30;99.90
55121;DHT22;41019;48.512;9.036;2023-01-08T09:00:06;7.80;99.90
55121;DHT22;41019;48.512;9.036;2023-01-08T09:02:32;7.80;99.90
55121;DHT22;41019;48.512;9.036;2023-01-08T09:04:58;7.80;99.90
55121;DHT22;41019;48.512;9.036;2023-01-08T09:07:23;7.80;99.90
55121;DHT22;41019;48.512;9.036;2023-01-08T09:09:49;7.80;99.90
55121;DHT22;41019;48.512;9.036;2023-01-08T09:12:15;7.80;99.90
55121;DHT22;41019;48.512;9.036;2023-01-08T09:14:41;7.80;99.90
55121;DHT22;41019;48.512;9.036;2023-01-08T09:17:07;7.80;99.90
55121;DHT22;41019;48.512;9.036;2023-01-08T09:19:32;7.90;99.90
55121;DHT22;41019;48.512;9.036;2023-01-08T09:22:00;8.00;99.90
55121;DHT22;41019;48.512;9.036;2023-01-08T09:24:25;8.60;99.90
55121;DHT22;41019;48.512;9.036;2023-01-08T09:26:52;8.10;99.90
55121;DHT22;41019;48.512;9.036;2023-01-08T09:29:20;8.20;99.90
55121;DHT22;41019;48.512;9.036;2023-01-08T09:31:46;8.20;99.90
55121;DHT22;41019;48.512;9.036;2023-01-08T09:34:11;8.30;99.90
55121;DHT22;41019;48.512;9.036;2023-01-08T09:36:37;8.40;99.90
55121;DHT22;41019;48.512;9.036;2023-01-08T09:39:03;8.40;99.90
55121;DHT22;41019;48.512;9.036;2023-01-08T09:41:37;8.50;99.90
55121;DHT22;41019;48.512;9.036;2023-01-08T09:44:05;8.50;99.90
55121;DHT22;41019;48.512;9.036;2023-01-08T09:46:33;8.50;99.90
55121;DHT22;41019;48.512;9.036;2023-01-08T09:49:06;8.50;99.90
55121;DHT22;41019;48.512;9.036;2023-01-08T09:51:37;8.50;99.90
55121;DHT22;41019;48.512;9.036;2023-01-08T09:54:05;8.50;99.90
55121;DHT22;41019;48.512;9.036;2023-01-08T09:56:35;8.50;99.90
55121;DHT22;41019;48.512;9.036;2023-01-08T09:59:04;8.60;99.90
55121;DHT22;41019;48.512;9.036;2023-01-08T10:01:39;8.70;99.90
55121;DHT22;41019;48.512;9.036;2023-01-08T10:07:10;8.70;99.90
55121;DHT22;41019;48.512;9.036;2023-01-08T10:09:39;8.70;99.90
55121;DHT22;41019;48.512;9.036;2023-01-08T10:12:06;8.80;99.90
55121;DHT22;41019;48.512;9.036;2023-01-08T10:14:38;8.80;99.90
55121;DHT22;41019;48.512;9.036;2023-01-08T10:19:39;9.00;99.90
55121;DHT22;41019;48.512;9.036;2023-01-08T10:22:15;9.00;99.90
55121;DHT22;41019;48.512;9.036;2023-01-08T10:24:42;9.10;99.90
55121;DHT22;41019;48.512;9.036;2023-01-08T10:27:18;9.10;99.90
55121;DHT22;41019;48.512;9.036;2023-01-08T10:29:45;9.20;99.90
55121;DHT22;41019;48.512;9.036;2023-01-08T10:32:17;9.20;99.90
55121;DHT22;41019;48.512;9.036;2023-01-08T10:34:51;9.40;99.90
55121;DHT22;41019;48.512;9.036;2023-01-08T10:42:34;9.50;99.90
55121;DHT22;41019;48.512;9.036;2023-01-08T10:45:05;9.50;99.80
55121;DHT22;41019;48.512;9.036;2023-01-08T10:47:35;9.60;99.80
55121;DHT22;41019;48.512;9.036;2023-01-08T10:50:04;9.60;99.80
55121;DHT22;41019;48.512;9.036;2023-01-08T10:52:33;9.60;99.60
55121;DHT22;41019;48.512;9.036;2023-01-08T10:55:20;9.70;99.90
55121;DHT22;41019;48.512;9.036;2023-01-08T10:57:56;9.80;99.70
55121;DHT22;41019;48.512;9.036;2023-01-08T11:00:28;9.80;99.40
55121;DHT22;41019;48.512;9.036;2023-01-08T11:02:57;10.00;99.40
55121;DHT22;41019;48.512;9.036;2023-01-08T11:05:34;10.00;99.10
55121;DHT22;41019;48.512;9.036;2023-01-08T11:08:04;10.10;98.90
55121;DHT22;41019;48.512;9.036;2023-01-08T11:10:33;10.20;98.90
55121;DHT22;41019;48.512;9.036;2023-01-08T11:13:05;10.20;98.20
55121;DHT22;41019;48.512;9.036;2023-01-08T11:15:40;10.30;98.70
55121;DHT22;41019;48.512;9.036;2023-01-08T11:18:19;10.40;98.10
55121;DHT22;41019;48.512;9.036;2023-01-08T11:20:49;10.40;97.60
55121;DHT22;41019;48.512;9.036;2023-01-08T11:23:21;10.50;98.00
55121;DHT22;41019;48.512;9.036;2023-01-08T11:26:16;10.50;98.40
55121;DHT22;41019;48.512;9.036;2023-01-08T11:28:51;10.50;97.60
55121;DHT22;41019;48.512;9.036;2023-01-08T11:34:30;10.60;97.50
55121;DHT22;41019;48.512;9.036;2023-01-08T11:37:19;10.50;97.70
55121;DHT22;41019;48.512;9.036;2023-01-08T11:39:45;10.90;97.30
55121;DHT22;41019;48.512;9.036;2023-01-08T11:45:25;10.70;96.60
55121;DHT22;41019;48.512;9.036;2023-01-08T11:53:27;10.70;96.60
55121;DHT22;41019;48.512;9.036;2023-01-08T12:01:45;10.90;96.30
55121;DHT22;41019;48.512;9.036;2023-01-08T12:04:34;10.90;96.40
55121;DHT22;41019;48.512;9.036;2023-01-08T12:12:33;11.00;97.00
55121;DHT22;41019;48.512;9.036;2023-01-08T12:20:20;11.10;95.30
55121;DHT22;41019;48.512;9.036;2023-01-08T12:26:01;11.10;95.30
55121;DHT22;41019;48.512;9.036;2023-01-08T12:36:48;11.20;94.30
55121;DHT22;41019;48.512;9.036;2023-01-08T12:39:34;11.20;94.50
55121;DHT22;41019;48.512;9.036;2023-01-08T12:42:14;11.10;94.50
55121;DHT22;41019;48.512;9.036;2023-01-08T12:44:44;11.20;94.70
55121;DHT22;41019;48.512;9.036;2023-01-08T12:47:16;11.10;94.60
55121;DHT22;41019;48.512;9.036;2023-01-08T13:01:46;11.00;94.40
55121;DHT22;41019;48.512;9.036;2023-01-08T13:04:15;11.00;94.30
55121;DHT22;41019;48.512;9.036;2023-01-08T13:06:59;11.00;94.70
55121;DHT22;41019;48.512;9.036;2023-01-08T13:09:26;10.90;93.80
55121;DHT22;41019;48.512;9.036;2023-01-08T13:11:55;10.90;94.70
55121;DHT22;41019;48.512;9.036;2023-01-08T13:14:22;10.80;95.00
55121;DHT22;41019;48.512;9.036;2023-01-08T13:17:16;10.80;94.30
55121;DHT22;41019;48.512;9.036;2023-01-08T13:19:51;10.70;94.50
55121;DHT22;41019;48.512;9.036;2023-01-08T13:22:32;10.70;94.80
55121;DHT22;41019;48.512;9.036;2023-01-08T13:25:27;10.70;95.40
55121;DHT22;41019;48.512;9.036;2023-01-08T13:27:54;10.70;96.00
55121;DHT22;41019;48.512;9.036;2023-01-08T13:30:39;10.70;96.00
55121;DHT22;41019;48.512;9.036;2023-01-08T13:35:49;10.70;95.60
55121;DHT22;41019;48.512;9.036;2023-01-08T13:38:18;10.70;96.60
55121;DHT22;41019;48.512;9.036;2023-01-08T13:46:15;10.80;97.20
55121;DHT22;41019;48.512;9.036;2023-01-08T13:48:49;10.90;96.60
55121;DHT22;41019;48.512;9.036;2023-01-08T13:51:43;11.00;95.60
55121;DHT22;41019;48.512;9.036;2023-01-08T13:56:44;11.30;94.40
55121;DHT22;41019;48.512;9.036;2023-01-08T14:01:53;11.50;93.00
55121;DHT22;41019;48.512;9.036;2023-01-08T14:04:21;11.60;92.80
55121;DHT22;41019;48.512;9.036;2023-01-08T14:06:47;11.60;93.20
55121;DHT22;41019;48.512;9.036;2023-01-08T14:09:22;11.70;92.00
55121;DHT22;41019;48.512;9.036;2023-01-08T14:11:52;11.60;92.70
55121;DHT22;41019;48.512;9.036;2023-01-08T14:14:22;11.60;93.40
55121;DHT22;41019;48.512;9.036;2023-01-08T14:16:51;11.50;92.80
55121;DHT22;41019;48.512;9.036;2023-01-08T14:19:21;11.60;92.50
55121;DHT22;41019;48.512;9.036;2023-01-08T14:21:56;11.60;92.90
55121;DHT22;41019;48.512;9.036;2023-01-08T14:24:25;11.50;93.10
55121;DHT22;41019;48.512;9.036;2023-01-08T14:26:54;11.50;93.40
55121;DHT22;41019;48.512;9.036;2023-01-08T14:29:22;11.50;93.40
55121;DHT22;41019;48.512;9.036;2023-01-08T14:31:54;11.40;93.10
55121;DHT22;41019;48.512;9.036;2023-01-08T14:34:23;11.40;93.40
55121;DHT22;41019;48.512;9.036;2023-01-08T14:36:52;11.30;94.20
55121;DHT22;41019;48.512;9.036;2023-01-08T14:39:32;11.30;94.30
55121;DHT22;41019;48.512;9.036;2023-01-08T14:42:15;11.30;94.20
55121;DHT22;41019;48.512;9.036;2023-01-08T14:45:30;11.20;95.40
55121;DHT22;41019;48.512;9.036;2023-01-08T14:50:52;11.10;96.20
55121;DHT22;41019;48.512;9.036;2023-01-08T14:53:27;11.00;95.50
55121;DHT22;41019;48.512;9.036;2023-01-08T14:55:55;10.90;95.90
55121;DHT22;41019;48.512;9.036;2023-01-08T14:58:24;10.90;97.00
55121;DHT22;41019;48.512;9.036;2023-01-08T15:00:55;10.80;97.20
55121;DHT22;41019;48.512;9.036;2023-01-08T15:03:35;10.70;97.30
55121;DHT22;41019;48.512;9.036;2023-01-08T15:06:02;10.70;97.30
55121;DHT22;41019;48.512;9.036;2023-01-08T15:11:04;10.60;98.00
55121;DHT22;41019;48.512;9.036;2023-01-08T15:13:35;10.50;98.30
55121;DHT22;41019;48.512;9.036;2023-01-08T15:18:59;10.40;98.30
55121;DHT22;41019;48.512;9.036;2023-01-08T15:21:26;10.40;98.40
55121;DHT22;41019;48.512;9.036;2023-01-08T15:23:55;10.30;98.60
55121;DHT22;41019;48.512;9.036;2023-01-08T15:26:22;10.30;98.40
55121;DHT22;41019;48.512;9.036;2023-01-08T15:28:58;10.30;97.30
55121;DHT22;41019;48.512;9.036;2023-01-08T15:31:29;10.30;97.80
55121;DHT22;41019;48.512;9.036;2023-01-08T15:33:57;10.20;98.10
55121;DHT22;41019;48.512;9.036;2023-01-08T15:36:23;10.20;96.90
55121;DHT22;41019;48.512;9.036;2023-01-08T15:38:50;10.20;97.50
55121;DHT22;41019;48.512;9.036;2023-01-08T15:41:19;10.20;98.00
55121;DHT22;41019;48.512;9.036;2023-01-08T15:44:04;10.20;98.20
55121;DHT22;41019;48.512;9.036;2023-01-08T15:46:30;10.10;98.30
55121;DHT22;41019;48.512;9.036;2023-01-08T15:48:56;10.00;98.80
55121;DHT22;41019;48.512;9.036;2023-01-08T15:51:23;10.00;98.90
55121;DHT22;41019;48.512;9.036;2023-01-08T15:53:50;9.90;99.00
55121;DHT22;41019;48.512;9.036;2023-01-08T15:56:16;9.90;99.00
55121;DHT22;41019;48.512;9.036;2023-01-08T15:58:42;9.80;99.00
55121;DHT22;41019;48.512;9.036;2023-01-08T16:01:08;9.80;98.50
55121;DHT22;41019;48.512;9.036;2023-01-08T16:03:34;9.80;98.60
55121;DHT22;41019;48.512;9.036;2023-01-08T16:06:04;9.80;98.80
55121;DHT22;41019;48.512;9.036;2023-01-08T16:08:31;9.80;99.10
55121;DHT22;41019;48.512;9.036;2023-01-08T16:10:57;9.80;98.70
55121;DHT22;41019;48.512;9.036;2023-01-08T16:13:22;9.80;98.70
55121;DHT22;41019;48.512;9.036;2023-01-08T16:15:48;9.80;99.10
55121;DHT22;41019;48.512;9.036;2023-01-08T16:18:14;9.70;99.00
55121;DHT22;41019;48.512;9.036;2023-01-08T16:20:40;9.70;98.90
55121;DHT22;41019;48.512;9.036;2023-01-08T16:23:06;9.70;98.90
55121;DHT22;41019;48.512;9.036;2023-01-08T16:25:32;10.10;99.50
55121;DHT22;41019;48.512;9.036;2023-01-08T16:27:58;9.60;99.70
55121;DHT22;41019;48.512;9.036;2023-01-08T16:30:24;9.60;99.70
55121;DHT22;41019;48.512;9.036;2023-01-08T16:32:51;9.60;99.90
55121;DHT22;41019;48.512;9.036;2023-01-08T16:35:18;9.60;99.90
55121;DHT22;41019;48.512;9.036;2023-01-08T16:37:45;9.60;99.60
55121;DHT22;41019;48.512;9.036;2023-01-08T16:40:11;9.50;99.50
55121;DHT22;41019;48.512;9.036;2023-01-08T16:42:37;9.50;99.60
55121;DHT22;41019;48.512;9.036;2023-01-08T16:45:04;9.50;99.80
55121;DHT22;41019;48.512;9.036;2023-01-08T16:47:30;9.50;99.90
55121;DHT22;41019;48.512;9.036;2023-01-08T16:49:56;9.40;99.90
55121;DHT22;41019;48.512;9.036;2023-01-08T16:52:22;9.40;99.90
55121;DHT22;41019;48.512;9.036;2023-01-08T16:54:47;9.40;99.90
55121;DHT22;41019;48.512;9.036;2023-01-08T16:57:13;9.30;99.90
55121;DHT22;41019;48.512;9.036;2023-01-08T16:59:39;9.40;99.90
55121;DHT22;41019;48.512;9.036;2023-01-08T17:02:05;9.30;99.80
55121;DHT22;41019;48.512;9.036;2023-01-08T17:04:31;9.30;99.90
55121;DHT22;41019;48.512;9.036;2023-01-08T17:06:57;9.20;99.90
55121;DHT22;41019;48.512;9.036;2023-01-08T17:09:24;9.20;99.90
55121;DHT22;41019;48.512;9.036;2023-01-08T17:11:50;9.20;99.90
55121;DHT22;41019;48.512;9.036;2023-01-08T17:14:16;9.20;99.90
55121;DHT22;41019;48.512;9.036;2023-01-08T17:16:42;9.10;99.90
55121;DHT22;41019;48.512;9.036;2023-01-08T17:19:10;9.20;99.90
55121;DHT22;41019;48.512;9.036;2023-01-08T17:21:38;9.10;99.90
55121;DHT22;41019;48.512;9.036;2023-01-08T17:24:04;9.10;99.90
55121;DHT22;41019;48.512;9.036;2023-01-08T17:26:30;9.10;99.90
55121;DHT22;41019;48.512;9.036;2023-01-08T17:28:56;9.10;99.90
55121;DHT22;41019;48.512;9.036;2023-01-08T17:31:22;9.10;99.90
55121;DHT22;41019;48.512;9.036;2023-01-08T17:33:49;9.00;99.90
55121;DHT22;41019;48.512;9.036;2023-01-08T17:36:21;9.00;99.90
55121;DHT22;41019;48.512;9.036;2023-01-08T17:38:48;8.90;99.90
55121;DHT22;41019;48.512;9.036;2023-01-08T17:41:15;8.90;99.90
55121;DHT22;41019;48.512;9.036;2023-01-08T17:44:03;9.10;99.90